sensor_id;sensor_type;location;lat;lon;timestamp;P1;durP1;ratioP1;P2;durP2;ratioP2
18738;SDS011;9498;51.862;19.460;2023-05-31T00:01:57;5.17;;;3.00;;
18738;SDS011;9498;51.862;19.460;2023-05-31T00:04:24;7.37;;;3.60;;
18738;SDS011;9498;51.862;19.460;2023-05-31T00:06:51;5.37;;;3.00;;
18738;SDS011;9498;51.862;19.460;2023-05-31T00:09:19;8.30;;;3.60;;
18738;SDS011;9498;51.862;19.460;2023-05-31T00:11:46;4.77;;;3.20;;
18738;SDS011;9498;51.862;19.460;2023-05-31T00:14:13;10.37;;;3.70;;
18738;SDS011;9498;51.862;19.460;2023-05-31T00:16:42;8.30;;;3.40;;
18738;SDS011;9498;51.862;19.460;2023-05-31T00:19:09;6.73;;;3.97;;
18738;SDS011;9498;51.862;19.460;2023-05-31T00:21:36;8.10;;;3.50;;
18738;SDS011;9498;51.862;19.460;2023-05-31T00:24:04;6.83;;;3.33;;
18738;SDS011;9498;51.862;19.460;2023-05-31T00:26:31;8.93;;;3.30;;
18738;SDS011;9498;51.862;19.460;2023-05-31T00:28:59;4.87;;;2.90;;
18738;SDS011;9498;51.862;19.460;2023-05-31T00:31:26;9.07;;;3.57;;
18738;SDS011;9498;51.862;19.460;2023-05-31T00:33:55;6.17;;;3.30;;
18738;SDS011;9498;51.862;19.460;2023-05-31T00:36:22;5.57;;;3.23;;
18738;SDS011;9498;51.862;19.460;2023-05-31T00:38:50;9.40;;;3.60;;
18738;SDS011;9498;51.862;19.460;2023-05-31T00:41:17;10.97;;;3.53;;
18738;SDS011;9498;51.862;19.460;2023-05-31T00:43:45;8.03;;;3.07;;
18738;SDS011;9498;51.862;19.460;2023-05-31T00:46:15;8.87;;;3.93;;
18738;SDS011;9498;51.862;19.460;2023-05-31T00:48:47;6.47;;;3.40;;
18738;SDS011;9498;51.862;19.460;2023-05-31T00:51:16;5.93;;;3.30;;
18738;SDS011;9498;51.862;19.460;2023-05-31T00:53:44;5.97;;;3.20;;
18738;SDS011;9498;51.862;19.460;2023-05-31T00:56:11;12.40;;;3.47;;
18738;SDS011;9498;51.862;19.460;2023-05-31T00:58:39;7.93;;;3.77;;
18738;SDS011;9498;51.862;19.460;2023-05-31T01:01:07;5.10;;;3.23;;
18738;SDS011;9498;51.862;19.460;2023-05-31T01:03:35;7.97;;;3.50;;
18738;SDS011;9498;51.862;19.460;2023-05-31T01:06:02;4.37;;;3.13;;
18738;SDS011;9498;51.862;19.460;2023-05-31T01:08:31;6.73;;;3.37;;
18738;SDS011;9498;51.862;19.460;2023-05-31T01:10:59;9.40;;;3.13;;
18738;SDS011;9498;51.862;19.460;2023-05-31T01:13:32;11.27;;;3.53;;
18738;SDS011;9498;51.862;19.460;2023-05-31T01:16:02;6.33;;;3.20;;
18738;SDS011;9498;51.862;19.460;2023-05-31T01:18:37;8.03;;;3.43;;
18738;SDS011;9498;51.862;19.460;2023-05-31T01:21:09;6.47;;;3.30;;
18738;SDS011;9498;51.862;19.460;2023-05-31T01:23:44;6.40;;;3.47;;
18738;SDS011;9498;51.862;19.460;2023-05-31T01:26:34;10.27;;;3.63;;
18738;SDS011;9498;51.862;19.460;2023-05-31T01:29:04;5.53;;;3.13;;
18738;SDS011;9498;51.862;19.460;2023-05-31T01:31:31;7.03;;;3.27;;
18738;SDS011;9498;51.862;19.460;2023-05-31T01:34:01;12.37;;;3.57;;
18738;SDS011;9498;51.862;19.460;2023-05-31T01:36:29;6.67;;;3.20;;
18738;SDS011;9498;51.862;19.460;2023-05-31T01:38:57;10.50;;;3.63;;
18738;SDS011;9498;51.862;19.460;2023-05-31T01:41:24;11.53;;;3.73;;
18738;SDS011;9498;51.862;19.460;2023-05-31T01:43:54;5.73;;;3.10;;
18738;SDS011;9498;51.862;19.460;2023-05-31T01:46:22;5.37;;;3.03;;
18738;SDS011;9498;51.862;19.460;2023-05-31T01:48:49;9.00;;;3.80;;
18738;SDS011;9498;51.862;19.460;2023-05-31T01:51:18;5.73;;;3.20;;
18738;SDS011;9498;51.862;19.460;2023-05-31T01:53:46;8.80;;;3.20;;
18738;SDS011;9498;51.862;19.460;2023-05-31T01:56:13;10.27;;;3.40;;
18738;SDS011;9498;51.862;19.460;2023-05-31T01:58:41;7.60;;;3.50;;
18738;SDS011;9498;51.862;19.460;2023-05-31T02:01:11;5.37;;;3.03;;
18738;SDS011;9498;51.862;19.460;2023-05-31T02:03:38;9.30;;;3.03;;
18738;SDS011;9498;51.862;19.460;2023-05-31T02:06:06;5.57;;;3.10;;
18738;SDS011;9498;51.862;19.460;2023-05-31T02:08:33;8.40;;;3.43;;
18738;SDS011;9498;51.862;19.460;2023-05-31T02:11:00;6.67;;;3.60;;
18738;SDS011;9498;51.862;19.460;2023-05-31T02:13:28;6.80;;;3.37;;
18738;SDS011;9498;51.862;19.460;2023-05-31T02:15:55;9.20;;;3.53;;
18738;SDS011;9498;51.862;19.460;2023-05-31T02:18:24;10.80;;;3.27;;
18738;SDS011;9498;51.862;19.460;2023-05-31T02:20:53;7.80;;;3.30;;
18738;SDS011;9498;51.862;19.460;2023-05-31T02:23:20;6.70;;;3.37;;
18738;SDS011;9498;51.862;19.460;2023-05-31T02:25:48;5.27;;;3.33;;
18738;SDS011;9498;51.862;19.460;2023-05-31T02:28:15;7.67;;;3.40;;
18738;SDS011;9498;51.862;19.460;2023-05-31T02:30:52;9.47;;;3.80;;
18738;SDS011;9498;51.862;19.460;2023-05-31T02:33:19;5.63;;;3.00;;
18738;SDS011;9498;51.862;19.460;2023-05-31T02:35:48;8.67;;;3.57;;
18738;SDS011;9498;51.862;19.460;2023-05-31T02:38:15;6.87;;;3.40;;
18738;SDS011;9498;51.862;19.460;2023-05-31T02:40:43;7.83;;;3.37;;
18738;SDS011;9498;51.862;19.460;2023-05-31T02:43:10;8.33;;;4.30;;
18738;SDS011;9498;51.862;19.460;2023-05-31T02:45:37;9.87;;;3.43;;
18738;SDS011;9498;51.862;19.460;2023-05-31T02:48:05;11.33;;;3.70;;
18738;SDS011;9498;51.862;19.460;2023-05-31T02:50:32;6.37;;;3.47;;
18738;SDS011;9498;51.862;19.460;2023-05-31T02:53:01;7.70;;;3.50;;
18738;SDS011;9498;51.862;19.460;2023-05-31T02:55:30;8.40;;;4.20;;
18738;SDS011;9498;51.862;19.460;2023-05-31T02:57:57;8.40;;;3.70;;
18738;SDS011;9498;51.862;19.460;2023-05-31T03:00:24;5.33;;;3.20;;
18738;SDS011;9498;51.862;19.460;2023-05-31T03:02:52;9.00;;;3.80;;
18738;SDS011;9498;51.862;19.460;2023-05-31T03:05:19;6.50;;;3.13;;
18738;SDS011;9498;51.862;19.460;2023-05-31T03:07:48;7.47;;;3.60;;
18738;SDS011;9498;51.862;19.460;2023-05-31T03:10:17;6.50;;;3.47;;
18738;SDS011;9498;51.862;19.460;2023-05-31T03:12:44;6.63;;;3.97;;
18738;SDS011;9498;51.862;19.460;2023-05-31T03:15:11;6.93;;;3.67;;
18738;SDS011;9498;51.862;19.460;2023-05-31T03:17:39;7.60;;;3.90;;
18738;SDS011;9498;51.862;19.460;2023-05-31T03:20:07;9.80;;;4.20;;
18738;SDS011;9498;51.862;19.460;2023-05-31T03:22:35;6.83;;;3.60;;
18738;SDS011;9498;51.862;19.460;2023-05-31T03:25:02;9.83;;;4.53;;
18738;SDS011;9498;51.862;19.460;2023-05-31T03:27:31;11.57;;;4.27;;
18738;SDS011;9498;51.862;19.460;2023-05-31T03:29:58;9.23;;;4.23;;
18738;SDS011;9498;51.862;19.460;2023-05-31T03:32:26;7.40;;;3.80;;
18738;SDS011;9498;51.862;19.460;2023-05-31T03:34:53;10.33;;;4.30;;
18738;SDS011;9498;51.862;19.460;2023-05-31T03:37:20;7.70;;;4.13;;
18738;SDS011;9498;51.862;19.460;2023-05-31T03:39:48;10.50;;;4.13;;
18738;SDS011;9498;51.862;19.460;2023-05-31T03:42:15;9.50;;;4.30;;
18738;SDS011;9498;51.862;19.460;2023-05-31T03:44:44;12.03;;;4.70;;
18738;SDS011;9498;51.862;19.460;2023-05-31T03:47:11;7.20;;;4.17;;
18738;SDS011;9498;51.862;19.460;2023-05-31T03:49:38;10.27;;;4.00;;
18738;SDS011;9498;51.862;19.460;2023-05-31T03:52:06;12.03;;;4.50;;
18738;SDS011;9498;51.862;19.460;2023-05-31T03:54:37;12.00;;;4.40;;
18738;SDS011;9498;51.862;19.460;2023-05-31T03:57:05;9.57;;;3.80;;
18738;SDS011;9498;51.862;19.460;2023-05-31T03:59:33;10.97;;;4.37;;
18738;SDS011;9498;51.862;19.460;2023-05-31T04:02:02;15.07;;;4.90;;
18738;SDS011;9498;51.862;19.460;2023-05-31T04:04:30;11.03;;;5.10;;
18738;SDS011;9498;51.862;19.460;2023-05-31T04:06:57;8.83;;;4.90;;
18738;SDS011;9498;51.862;19.460;2023-05-31T04:09:24;9.37;;;4.90;;
18738;SDS011;9498;51.862;19.460;2023-05-31T04:11:51;11.13;;;4.77;;
18738;SDS011;9498;51.862;19.460;2023-05-31T04:14:19;9.47;;;4.93;;
18738;SDS011;9498;51.862;19.460;2023-05-31T04:16:46;13.33;;;5.47;;
18738;SDS011;9498;51.862;19.460;2023-05-31T04:19:15;14.73;;;5.10;;
18738;SDS011;9498;51.862;19.460;2023-05-31T04:21:42;13.03;;;4.60;;
18738;SDS011;9498;51.862;19.460;2023-05-31T04:24:10;13.00;;;4.63;;
18738;SDS011;9498;51.862;19.460;2023-05-31T04:26:37;11.77;;;4.07;;
18738;SDS011;9498;51.862;19.460;2023-05-31T04:29:04;13.13;;;4.20;;
18738;SDS011;9498;51.862;19.460;2023-05-31T04:31:32;5.97;;;3.17;;
18738;SDS011;9498;51.862;19.460;2023-05-31T04:34:01;9.33;;;3.77;;
18738;SDS011;9498;51.862;19.460;2023-05-31T04:36:30;10.83;;;3.57;;
18738;SDS011;9498;51.862;19.460;2023-05-31T04:39:00;11.27;;;3.40;;
18738;SDS011;9498;51.862;19.460;2023-05-31T04:41:34;8.93;;;3.77;;
18738;SDS011;9498;51.862;19.460;2023-05-31T04:44:01;14.00;;;3.33;;
18738;SDS011;9498;51.862;19.460;2023-05-31T04:46:28;8.07;;;3.27;;
18738;SDS011;9498;51.862;19.460;2023-05-31T04:48:57;7.10;;;3.13;;
18738;SDS011;9498;51.862;19.460;2023-05-31T04:51:25;12.83;;;3.10;;
18738;SDS011;9498;51.862;19.460;2023-05-31T04:53:54;7.93;;;3.27;;
18738;SDS011;9498;51.862;19.460;2023-05-31T04:56:21;4.97;;;2.77;;
18738;SDS011;9498;51.862;19.460;2023-05-31T04:58:50;5.57;;;2.50;;
18738;SDS011;9498;51.862;19.460;2023-05-31T05:01:17;6.97;;;2.60;;
18738;SDS011;9498;51.862;19.460;2023-05-31T05:03:44;6.57;;;2.50;;
18738;SDS011;9498;51.862;19.460;2023-05-31T05:06:12;6.37;;;2.70;;
18738;SDS011;9498;51.862;19.460;2023-05-31T05:08:41;8.40;;;2.77;;
18738;SDS011;9498;51.862;19.460;2023-05-31T05:11:09;9.77;;;2.73;;
18738;SDS011;9498;51.862;19.460;2023-05-31T05:13:37;13.07;;;2.77;;
18738;SDS011;9498;51.862;19.460;2023-05-31T05:16:04;6.77;;;2.40;;
18738;SDS011;9498;51.862;19.460;2023-05-31T05:18:31;10.30;;;2.53;;
18738;SDS011;9498;51.862;19.460;2023-05-31T05:20:59;6.03;;;2.23;;
18738;SDS011;9498;51.862;19.460;2023-05-31T05:23:26;5.47;;;2.33;;
18738;SDS011;9498;51.862;19.460;2023-05-31T05:25:53;5.67;;;2.40;;
18738;SDS011;9498;51.862;19.460;2023-05-31T05:28:22;4.80;;;2.13;;
18738;SDS011;9498;51.862;19.460;2023-05-31T05:30:50;4.57;;;2.40;;
18738;SDS011;9498;51.862;19.460;2023-05-31T05:33:18;6.70;;;2.30;;
18738;SDS011;9498;51.862;19.460;2023-05-31T05:35:45;5.57;;;2.13;;
18738;SDS011;9498;51.862;19.460;2023-05-31T05:38:13;6.87;;;2.20;;
18738;SDS011;9498;51.862;19.460;2023-05-31T05:40:40;8.80;;;2.07;;
18738;SDS011;9498;51.862;19.460;2023-05-31T05:43:07;5.93;;;2.03;;
18738;SDS011;9498;51.862;19.460;2023-05-31T05:45:36;6.20;;;2.40;;
18738;SDS011;9498;51.862;19.460;2023-05-31T05:48:04;9.07;;;2.67;;
18738;SDS011;9498;51.862;19.460;2023-05-31T05:50:31;6.47;;;2.20;;
18738;SDS011;9498;51.862;19.460;2023-05-31T05:52:59;6.73;;;2.00;;
18738;SDS011;9498;51.862;19.460;2023-05-31T05:55:26;6.33;;;2.23;;
18738;SDS011;9498;51.862;19.460;2023-05-31T05:57:53;5.83;;;1.90;;
18738;SDS011;9498;51.862;19.460;2023-05-31T06:00:21;9.10;;;2.10;;
18738;SDS011;9498;51.862;19.460;2023-05-31T06:02:51;5.77;;;2.20;;
18738;SDS011;9498;51.862;19.460;2023-05-31T06:05:18;4.13;;;2.07;;
18738;SDS011;9498;51.862;19.460;2023-05-31T06:07:50;7.77;;;1.80;;
18738;SDS011;9498;51.862;19.460;2023-05-31T06:10:17;3.53;;;1.70;;
18738;SDS011;9498;51.862;19.460;2023-05-31T06:12:45;6.00;;;2.00;;
18738;SDS011;9498;51.862;19.460;2023-05-31T06:15:12;5.73;;;1.87;;
18738;SDS011;9498;51.862;19.460;2023-05-31T06:17:40;4.03;;;1.90;;
18738;SDS011;9498;51.862;19.460;2023-05-31T06:20:10;5.53;;;1.70;;
18738;SDS011;9498;51.862;19.460;2023-05-31T06:22:37;4.70;;;1.47;;
18738;SDS011;9498;51.862;19.460;2023-05-31T06:25:04;3.40;;;1.47;;
18738;SDS011;9498;51.862;19.460;2023-05-31T06:27:33;5.03;;;1.70;;
18738;SDS011;9498;51.862;19.460;2023-05-31T06:30:00;3.50;;;1.50;;
18738;SDS011;9498;51.862;19.460;2023-05-31T06:32:27;3.07;;;1.70;;
18738;SDS011;9498;51.862;19.460;2023-05-31T06:34:55;3.17;;;1.47;;
18738;SDS011;9498;51.862;19.460;2023-05-31T06:37:24;4.33;;;1.60;;
18738;SDS011;9498;51.862;19.460;2023-05-31T06:39:52;5.17;;;1.60;;
18738;SDS011;9498;51.862;19.460;2023-05-31T06:42:20;7.43;;;1.80;;
18738;SDS011;9498;51.862;19.460;2023-05-31T06:44:47;6.40;;;1.50;;
18738;SDS011;9498;51.862;19.460;2023-05-31T06:47:15;5.10;;;1.70;;
18738;SDS011;9498;51.862;19.460;2023-05-31T06:49:42;4.00;;;1.70;;
18738;SDS011;9498;51.862;19.460;2023-05-31T06:52:10;5.23;;;1.70;;
18738;SDS011;9498;51.862;19.460;2023-05-31T06:54:41;4.73;;;1.80;;
18738;SDS011;9498;51.862;19.460;2023-05-31T06:57:10;2.87;;;1.37;;
18738;SDS011;9498;51.862;19.460;2023-05-31T06:59:37;6.57;;;1.57;;
18738;SDS011;9498;51.862;19.460;2023-05-31T07:02:04;5.65;;;1.55;;
18738;SDS011;9498;51.862;19.460;2023-05-31T07:04:32;3.17;;;1.40;;
18738;SDS011;9498;51.862;19.460;2023-05-31T07:06:59;4.17;;;1.33;;
18738;SDS011;9498;51.862;19.460;2023-05-31T07:09:27;5.67;;;1.57;;
18738;SDS011;9498;51.862;19.460;2023-05-31T07:11:56;5.43;;;1.40;;
18738;SDS011;9498;51.862;19.460;2023-05-31T07:14:23;5.03;;;1.70;;
18738;SDS011;9498;51.862;19.460;2023-05-31T07:16:50;4.67;;;1.60;;
18738;SDS011;9498;51.862;19.460;2023-05-31T07:19:18;7.27;;;1.77;;
18738;SDS011;9498;51.862;19.460;2023-05-31T07:21:45;7.20;;;1.50;;
18738;SDS011;9498;51.862;19.460;2023-05-31T07:24:13;4.53;;;1.67;;
18738;SDS011;9498;51.862;19.460;2023-05-31T07:26:40;4.17;;;1.60;;
18738;SDS011;9498;51.862;19.460;2023-05-31T07:29:09;6.87;;;1.70;;
18738;SDS011;9498;51.862;19.460;2023-05-31T07:31:37;5.73;;;1.63;;
18738;SDS011;9498;51.862;19.460;2023-05-31T07:34:04;11.30;;;1.90;;
18738;SDS011;9498;51.862;19.460;2023-05-31T07:36:32;3.43;;;1.57;;
18738;SDS011;9498;51.862;19.460;2023-05-31T07:39:00;6.10;;;1.67;;
18738;SDS011;9498;51.862;19.460;2023-05-31T07:41:27;6.77;;;2.27;;
18738;SDS011;9498;51.862;19.460;2023-05-31T07:43:55;8.17;;;2.43;;
18738;SDS011;9498;51.862;19.460;2023-05-31T07:46:23;6.60;;;1.87;;
18738;SDS011;9498;51.862;19.460;2023-05-31T07:48:51;5.30;;;1.80;;
18738;SDS011;9498;51.862;19.460;2023-05-31T07:51:19;6.13;;;1.90;;
18738;SDS011;9498;51.862;19.460;2023-05-31T07:53:46;6.20;;;1.70;;
18738;SDS011;9498;51.862;19.460;2023-05-31T07:56:13;4.97;;;2.20;;
18738;SDS011;9498;51.862;19.460;2023-05-31T07:58:41;18.90;;;2.30;;
18738;SDS011;9498;51.862;19.460;2023-05-31T08:01:08;3.90;;;1.80;;
18738;SDS011;9498;51.862;19.460;2023-05-31T08:03:37;7.17;;;1.57;;
18738;SDS011;9498;51.862;19.460;2023-05-31T08:06:05;6.50;;;1.70;;
18738;SDS011;9498;51.862;19.460;2023-05-31T08:08:32;3.90;;;1.53;;
18738;SDS011;9498;51.862;19.460;2023-05-31T08:11:00;2.27;;;1.50;;
18738;SDS011;9498;51.862;19.460;2023-05-31T08:13:27;8.33;;;1.87;;
18738;SDS011;9498;51.862;19.460;2023-05-31T08:15:55;11.57;;;1.90;;
18738;SDS011;9498;51.862;19.460;2023-05-31T08:18:22;10.40;;;1.80;;
18738;SDS011;9498;51.862;19.460;2023-05-31T08:20:51;6.13;;;2.07;;
18738;SDS011;9498;51.862;19.460;2023-05-31T08:23:19;6.15;;;1.90;;
18738;SDS011;9498;51.862;19.460;2023-05-31T08:25:47;5.57;;;1.83;;
18738;SDS011;9498;51.862;19.460;2023-05-31T08:28:16;6.70;;;2.10;;
18738;SDS011;9498;51.862;19.460;2023-05-31T08:30:43;4.80;;;1.63;;
18738;SDS011;9498;51.862;19.460;2023-05-31T08:33:11;10.07;;;2.03;;
18738;SDS011;9498;51.862;19.460;2023-05-31T08:35:38;10.97;;;2.10;;
18738;SDS011;9498;51.862;19.460;2023-05-31T08:38:08;9.20;;;1.90;;
18738;SDS011;9498;51.862;19.460;2023-05-31T08:40:36;6.67;;;1.97;;
18738;SDS011;9498;51.862;19.460;2023-05-31T08:43:05;4.23;;;1.50;;
18738;SDS011;9498;51.862;19.460;2023-05-31T08:45:35;4.17;;;1.70;;
18738;SDS011;9498;51.862;19.460;2023-05-31T08:48:05;4.50;;;1.80;;
18738;SDS011;9498;51.862;19.460;2023-05-31T08:50:33;3.70;;;1.50;;
18738;SDS011;9498;51.862;19.460;2023-05-31T08:53:01;4.87;;;1.90;;
18738;SDS011;9498;51.862;19.460;2023-05-31T08:55:30;5.83;;;1.67;;
18738;SDS011;9498;51.862;19.460;2023-05-31T08:57:58;5.37;;;1.50;;
18738;SDS011;9498;51.862;19.460;2023-05-31T09:00:26;3.50;;;1.50;;
18738;SDS011;9498;51.862;19.460;2023-05-31T09:02:53;5.17;;;1.47;;
18738;SDS011;9498;51.862;19.460;2023-05-31T09:05:21;6.83;;;1.77;;
18738;SDS011;9498;51.862;19.460;2023-05-31T09:07:48;5.13;;;1.80;;
18738;SDS011;9498;51.862;19.460;2023-05-31T09:10:16;3.40;;;1.57;;
18738;SDS011;9498;51.862;19.460;2023-05-31T09:12:46;5.07;;;1.90;;
18738;SDS011;9498;51.862;19.460;2023-05-31T09:15:13;5.13;;;1.90;;
18738;SDS011;9498;51.862;19.460;2023-05-31T09:17:44;7.83;;;2.07;;
18738;SDS011;9498;51.862;19.460;2023-05-31T09:20:11;9.00;;;1.87;;
18738;SDS011;9498;51.862;19.460;2023-05-31T09:22:39;4.20;;;1.60;;
18738;SDS011;9498;51.862;19.460;2023-05-31T09:25:06;4.47;;;1.57;;
18738;SDS011;9498;51.862;19.460;2023-05-31T09:27:34;9.80;;;2.00;;
18738;SDS011;9498;51.862;19.460;2023-05-31T09:30:05;5.77;;;1.80;;
18738;SDS011;9498;51.862;19.460;2023-05-31T09:32:33;6.13;;;1.53;;
18738;SDS011;9498;51.862;19.460;2023-05-31T09:35:10;2.03;;;1.30;;
18738;SDS011;9498;51.862;19.460;2023-05-31T09:37:44;2.77;;;1.50;;
18738;SDS011;9498;51.862;19.460;2023-05-31T09:40:12;3.50;;;1.47;;
18738;SDS011;9498;51.862;19.460;2023-05-31T09:42:46;3.13;;;1.30;;
18738;SDS011;9498;51.862;19.460;2023-05-31T09:45:16;3.67;;;1.50;;
18738;SDS011;9498;51.862;19.460;2023-05-31T09:47:43;3.27;;;1.50;;
18738;SDS011;9498;51.862;19.460;2023-05-31T09:50:11;3.73;;;1.50;;
18738;SDS011;9498;51.862;19.460;2023-05-31T09:52:42;3.43;;;1.27;;
18738;SDS011;9498;51.862;19.460;2023-05-31T09:55:10;4.60;;;1.57;;
18738;SDS011;9498;51.862;19.460;2023-05-31T09:57:38;2.23;;;1.20;;
18738;SDS011;9498;51.862;19.460;2023-05-31T10:00:07;3.20;;;1.40;;
18738;SDS011;9498;51.862;19.460;2023-05-31T10:02:41;2.60;;;1.50;;
18738;SDS011;9498;51.862;19.460;2023-05-31T10:05:08;4.90;;;1.73;;
18738;SDS011;9498;51.862;19.460;2023-05-31T10:07:37;3.80;;;1.90;;
18738;SDS011;9498;51.862;19.460;2023-05-31T10:10:06;2.03;;;1.40;;
18738;SDS011;9498;51.862;19.460;2023-05-31T10:12:34;2.37;;;1.30;;
18738;SDS011;9498;51.862;19.460;2023-05-31T10:15:06;2.23;;;1.40;;
18738;SDS011;9498;51.862;19.460;2023-05-31T10:17:36;2.87;;;1.40;;
18738;SDS011;9498;51.862;19.460;2023-05-31T10:20:07;4.20;;;1.60;;
18738;SDS011;9498;51.862;19.460;2023-05-31T10:22:36;5.80;;;1.80;;
18738;SDS011;9498;51.862;19.460;2023-05-31T10:25:06;2.80;;;1.30;;
18738;SDS011;9498;51.862;19.460;2023-05-31T10:27:35;8.80;;;1.80;;
18738;SDS011;9498;51.862;19.460;2023-05-31T10:30:03;3.17;;;1.30;;
18738;SDS011;9498;51.862;19.460;2023-05-31T10:32:32;4.03;;;1.50;;
18738;SDS011;9498;51.862;19.460;2023-05-31T10:35:00;4.03;;;1.60;;
18738;SDS011;9498;51.862;19.460;2023-05-31T10:37:29;5.33;;;1.97;;
18738;SDS011;9498;51.862;19.460;2023-05-31T10:39:59;2.92;;;1.40;;
18738;SDS011;9498;51.862;19.460;2023-05-31T10:42:33;3.17;;;1.55;;
18738;SDS011;9498;51.862;19.460;2023-05-31T10:45:04;2.93;;;1.50;;
18738;SDS011;9498;51.862;19.460;2023-05-31T10:47:39;4.77;;;1.40;;
18738;SDS011;9498;51.862;19.460;2023-05-31T10:50:09;6.13;;;1.50;;
18738;SDS011;9498;51.862;19.460;2023-05-31T10:52:46;3.40;;;1.20;;
18738;SDS011;9498;51.862;19.460;2023-05-31T10:55:14;3.53;;;1.47;;
18738;SDS011;9498;51.862;19.460;2023-05-31T10:57:42;3.43;;;1.50;;
18738;SDS011;9498;51.862;19.460;2023-05-31T11:00:10;3.47;;;1.40;;
18738;SDS011;9498;51.862;19.460;2023-05-31T11:02:38;6.70;;;2.10;;
18738;SDS011;9498;51.862;19.460;2023-05-31T11:05:21;2.03;;;1.30;;
18738;SDS011;9498;51.862;19.460;2023-05-31T11:07:51;7.00;;;2.83;;
18738;SDS011;9498;51.862;19.460;2023-05-31T11:10:25;5.27;;;1.57;;
18738;SDS011;9498;51.862;19.460;2023-05-31T11:12:55;3.20;;;1.90;;
18738;SDS011;9498;51.862;19.460;2023-05-31T11:15:25;5.33;;;2.17;;
18738;SDS011;9498;51.862;19.460;2023-05-31T11:18:06;1.57;;;1.30;;
18738;SDS011;9498;51.862;19.460;2023-05-31T11:20:34;2.73;;;1.37;;
18738;SDS011;9498;51.862;19.460;2023-05-31T11:26:08;3.57;;;1.53;;
18738;SDS011;9498;51.862;19.460;2023-05-31T11:28:55;4.00;;;1.80;;
18738;SDS011;9498;51.862;19.460;2023-05-31T11:34:17;2.73;;;1.40;;
18738;SDS011;9498;51.862;19.460;2023-05-31T11:36:44;3.73;;;1.30;;
18738;SDS011;9498;51.862;19.460;2023-05-31T11:39:13;4.57;;;1.40;;
18738;SDS011;9498;51.862;19.460;2023-05-31T11:41:40;2.50;;;1.43;;
18738;SDS011;9498;51.862;19.460;2023-05-31T11:44:08;3.30;;;1.63;;
18738;SDS011;9498;51.862;19.460;2023-05-31T11:46:38;3.20;;;1.50;;
18738;SDS011;9498;51.862;19.460;2023-05-31T11:49:08;4.57;;;1.70;;
18738;SDS011;9498;51.862;19.460;2023-05-31T11:51:36;3.87;;;1.37;;
18738;SDS011;9498;51.862;19.460;2023-05-31T11:54:03;6.17;;;1.33;;
18738;SDS011;9498;51.862;19.460;2023-05-31T11:56:32;2.50;;;1.27;;
18738;SDS011;9498;51.862;19.460;2023-05-31T11:59:01;2.20;;;1.10;;
18738;SDS011;9498;51.862;19.460;2023-05-31T12:01:34;1.77;;;1.20;;
18738;SDS011;9498;51.862;19.460;2023-05-31T12:04:01;2.67;;;1.33;;
18738;SDS011;9498;51.862;19.460;2023-05-31T12:06:29;4.57;;;1.10;;
18738;SDS011;9498;51.862;19.460;2023-05-31T12:08:56;2.13;;;1.20;;
18738;SDS011;9498;51.862;19.460;2023-05-31T12:11:24;4.07;;;1.50;;
18738;SDS011;9498;51.862;19.460;2023-05-31T12:13:54;1.60;;;1.10;;
18738;SDS011;9498;51.862;19.460;2023-05-31T12:16:21;9.57;;;1.30;;
18738;SDS011;9498;51.862;19.460;2023-05-31T12:18:49;3.37;;;1.30;;
18738;SDS011;9498;51.862;19.460;2023-05-31T12:21:17;3.50;;;1.40;;
18738;SDS011;9498;51.862;19.460;2023-05-31T12:23:51;2.85;;;1.40;;
18738;SDS011;9498;51.862;19.460;2023-05-31T12:26:19;2.10;;;1.00;;
18738;SDS011;9498;51.862;19.460;2023-05-31T12:28:48;1.20;;;1.10;;
18738;SDS011;9498;51.862;19.460;2023-05-31T12:31:20;2.80;;;1.30;;
18738;SDS011;9498;51.862;19.460;2023-05-31T12:33:51;5.03;;;1.30;;
18738;SDS011;9498;51.862;19.460;2023-05-31T12:36:19;4.43;;;1.10;;
18738;SDS011;9498;51.862;19.460;2023-05-31T12:38:46;2.77;;;1.20;;
18738;SDS011;9498;51.862;19.460;2023-05-31T12:41:19;1.83;;;1.20;;
18738;SDS011;9498;51.862;19.460;2023-05-31T12:43:47;3.20;;;1.30;;
18738;SDS011;9498;51.862;19.460;2023-05-31T12:46:18;2.27;;;1.23;;
18738;SDS011;9498;51.862;19.460;2023-05-31T12:48:47;1.70;;;1.07;;
18738;SDS011;9498;51.862;19.460;2023-05-31T12:51:19;1.70;;;1.20;;
18738;SDS011;9498;51.862;19.460;2023-05-31T12:53:47;3.00;;;1.37;;
18738;SDS011;9498;51.862;19.460;2023-05-31T12:56:15;2.03;;;1.23;;
18738;SDS011;9498;51.862;19.460;2023-05-31T12:58:43;2.57;;;1.10;;
18738;SDS011;9498;51.862;19.460;2023-05-31T13:01:10;4.43;;;1.60;;
18738;SDS011;9498;51.862;19.460;2023-05-31T13:03:37;1.20;;;1.10;;
18738;SDS011;9498;51.862;19.460;2023-05-31T13:06:06;2.50;;;1.17;;
18738;SDS011;9498;51.862;19.460;2023-05-31T13:08:34;1.83;;;1.10;;
18738;SDS011;9498;51.862;19.460;2023-05-31T13:11:01;1.60;;;1.20;;
18738;SDS011;9498;51.862;19.460;2023-05-31T13:13:28;3.10;;;1.20;;
18738;SDS011;9498;51.862;19.460;2023-05-31T13:15:55;2.63;;;1.33;;
18738;SDS011;9498;51.862;19.460;2023-05-31T13:18:23;2.60;;;1.30;;
18738;SDS011;9498;51.862;19.460;2023-05-31T13:20:50;1.63;;;1.10;;
18738;SDS011;9498;51.862;19.460;2023-05-31T13:23:19;1.80;;;1.10;;
18738;SDS011;9498;51.862;19.460;2023-05-31T13:25:46;3.20;;;1.20;;
18738;SDS011;9498;51.862;19.460;2023-05-31T13:28:13;4.03;;;1.33;;
18738;SDS011;9498;51.862;19.460;2023-05-31T13:30:41;3.27;;;1.43;;
18738;SDS011;9498;51.862;19.460;2023-05-31T13:33:08;3.30;;;1.17;;
18738;SDS011;9498;51.862;19.460;2023-05-31T13:35:35;4.40;;;1.30;;
18738;SDS011;9498;51.862;19.460;2023-05-31T13:38:05;3.27;;;1.20;;
18738;SDS011;9498;51.862;19.460;2023-05-31T13:40:34;2.13;;;1.30;;
18738;SDS011;9498;51.862;19.460;2023-05-31T13:43:02;1.90;;;1.20;;
18738;SDS011;9498;51.862;19.460;2023-05-31T13:45:29;3.37;;;1.40;;
18738;SDS011;9498;51.862;19.460;2023-05-31T13:47:57;1.93;;;1.37;;
18738;SDS011;9498;51.862;19.460;2023-05-31T13:50:24;4.93;;;1.33;;
18738;SDS011;9498;51.862;19.460;2023-05-31T13:52:52;2.67;;;1.37;;
18738;SDS011;9498;51.862;19.460;2023-05-31T13:55:20;1.77;;;1.43;;
18738;SDS011;9498;51.862;19.460;2023-05-31T13:57:48;1.73;;;1.20;;
18738;SDS011;9498;51.862;19.460;2023-05-31T14:00:16;4.37;;;1.20;;
18738;SDS011;9498;51.862;19.460;2023-05-31T14:02:44;3.70;;;1.20;;
18738;SDS011;9498;51.862;19.460;2023-05-31T14:05:12;2.20;;;1.13;;
18738;SDS011;9498;51.862;19.460;2023-05-31T14:07:39;3.83;;;1.30;;
18738;SDS011;9498;51.862;19.460;2023-05-31T14:10:07;3.90;;;1.37;;
18738;SDS011;9498;51.862;19.460;2023-05-31T14:12:34;2.67;;;1.40;;
18738;SDS011;9498;51.862;19.460;2023-05-31T14:15:04;12.97;;;1.90;;
18738;SDS011;9498;51.862;19.460;2023-05-31T14:17:31;1.30;;;1.10;;
18738;SDS011;9498;51.862;19.460;2023-05-31T14:19:58;2.17;;;1.40;;
18738;SDS011;9498;51.862;19.460;2023-05-31T14:22:26;4.57;;;1.60;;
18738;SDS011;9498;51.862;19.460;2023-05-31T14:24:54;1.63;;;1.30;;
18738;SDS011;9498;51.862;19.460;2023-05-31T14:27:21;3.23;;;1.40;;
18738;SDS011;9498;51.862;19.460;2023-05-31T14:29:48;10.50;;;1.90;;
18738;SDS011;9498;51.862;19.460;2023-05-31T14:32:17;1.60;;;1.50;;
18738;SDS011;9498;51.862;19.460;2023-05-31T14:34:44;4.37;;;1.60;;
18738;SDS011;9498;51.862;19.460;2023-05-31T14:37:12;3.33;;;1.10;;
18738;SDS011;9498;51.862;19.460;2023-05-31T14:39:39;2.07;;;1.30;;
18738;SDS011;9498;51.862;19.460;2023-05-31T14:42:07;2.53;;;1.23;;
18738;SDS011;9498;51.862;19.460;2023-05-31T14:44:34;2.93;;;1.47;;
18738;SDS011;9498;51.862;19.460;2023-05-31T14:47:01;2.10;;;1.50;;
18738;SDS011;9498;51.862;19.460;2023-05-31T14:49:30;2.50;;;1.40;;
18738;SDS011;9498;51.862;19.460;2023-05-31T14:51:58;2.80;;;1.60;;
18738;SDS011;9498;51.862;19.460;2023-05-31T14:54:26;3.10;;;1.47;;
18738;SDS011;9498;51.862;19.460;2023-05-31T14:56:53;2.53;;;1.30;;
18738;SDS011;9498;51.862;19.460;2023-05-31T14:59:21;4.60;;;1.40;;